createdAt,value
2019-04-04T00:00:40.653Z,24.50
2019-04-04T00:01:40.638Z,21.10
2019-04-04T00:02:40.647Z,25.80
2019-04-04T00:03:40.616Z,23.20
2019-04-04T00:04:40.617Z,25.50
2019-04-04T00:05:40.597Z,20.80
2019-04-04T00:06:40.583Z,21.70
2019-04-04T00:07:40.594Z,20.30
2019-04-04T00:08:40.575Z,22.50
2019-04-04T00:09:40.551Z,23.90
2019-04-04T00:10:40.557Z,27.00
2019-04-04T00:11:40.529Z,21.10
2019-04-04T00:12:40.559Z,25.10
2019-04-04T00:13:41.994Z,22.80
2019-04-04T00:14:43.545Z,24.90
2019-04-04T00:15:40.490Z,23.40
2019-04-04T00:16:40.467Z,23.50
2019-04-04T00:17:40.458Z,22.00
2019-04-04T00:18:40.466Z,21.60
2019-04-04T00:19:40.443Z,26.60
2019-04-04T00:20:40.420Z,24.50
2019-04-04T00:21:40.419Z,18.80
2019-04-04T00:22:40.401Z,22.90
2019-04-04T00:23:40.408Z,26.60
2019-04-04T00:24:40.381Z,22.90
2019-04-04T00:25:40.910Z,24.70
2019-04-04T00:26:42.021Z,23.10
2019-04-04T00:27:42.053Z,23.20
2019-04-04T00:28:40.363Z,20.70
2019-04-04T00:29:40.325Z,23.50
2019-04-04T00:30:40.311Z,21.90
2019-04-04T00:31:40.306Z,22.00
2019-04-04T00:32:40.292Z,26.80
2019-04-04T00:33:40.306Z,23.60
2019-04-04T00:34:40.276Z,24.40
2019-04-04T00:35:40.257Z,25.10
2019-04-04T00:36:40.248Z,22.50
2019-04-04T00:37:41.136Z,22.40
2019-04-04T00:38:40.241Z,27.50
2019-04-04T00:39:40.490Z,26.10
2019-04-04T00:40:41.924Z,25.70
2019-04-04T00:41:40.184Z,21.80
2019-04-04T00:42:40.186Z,26.90
2019-04-04T00:43:40.175Z,22.90
2019-04-04T00:44:40.169Z,20.60
2019-04-04T00:45:40.145Z,26.80
2019-04-04T00:46:40.129Z,25.40
2019-04-04T00:47:40.122Z,27.90
2019-04-04T00:48:40.126Z,20.80
2019-04-04T00:49:40.094Z,22.10
2019-04-04T00:50:40.106Z,25.40
2019-04-04T00:51:40.073Z,21.80
2019-04-04T00:52:41.336Z,23.70
2019-04-04T00:53:42.823Z,24.30
2019-04-04T00:54:40.047Z,26.30
2019-04-04T00:55:40.030Z,26.10
2019-04-04T00:56:40.020Z,26.20
2019-04-04T00:57:40.006Z,27.90
2019-04-04T00:58:40.009Z,27.50
2019-04-04T00:59:39.987Z,22.30
2019-04-04T01:00:39.973Z,23.20
2019-04-04T01:01:39.967Z,26.80
2019-04-04T01:02:39.975Z,26.50
2019-04-04T01:03:39.997Z,26.20
2019-04-04T01:04:39.923Z,25.80
2019-04-04T01:05:39.911Z,26.40
2019-04-04T01:06:39.903Z,26.40
2019-04-04T01:07:39.911Z,22.00
2019-04-04T01:08:39.923Z,29.20
2019-04-04T01:09:39.866Z,23.90
2019-04-04T01:10:39.855Z,30.40
2019-04-04T01:11:39.847Z,25.40
2019-04-04T01:12:39.837Z,23.40
2019-04-04T01:13:39.849Z,25.90
2019-04-04T01:14:39.812Z,24.10
2019-04-04T01:15:39.800Z,24.90
2019-04-04T01:16:39.825Z,27.90
2019-04-04T01:17:39.775Z,26.60
2019-04-04T01:18:39.775Z,26.80
2019-04-04T01:19:39.779Z,27.10
2019-04-04T01:20:39.742Z,29.30
2019-04-04T01:21:39.731Z,29.00
2019-04-04T01:22:39.719Z,22.30
2019-04-04T01:23:39.717Z,27.30
2019-04-04T01:24:39.744Z,25.20
2019-04-04T01:25:39.693Z,24.60
2019-04-04T01:26:39.679Z,25.80
2019-04-04T01:27:39.668Z,27.90
2019-04-04T01:28:39.752Z,21.90
2019-04-04T01:29:40.872Z,22.60
2019-04-04T01:30:39.633Z,26.80
2019-04-04T01:31:39.620Z,26.00
2019-04-04T01:32:39.606Z,26.30
2019-04-04T01:33:39.602Z,24.30
2019-04-04T01:34:39.617Z,25.60
2019-04-04T01:35:39.587Z,24.80
2019-04-04T01:36:39.577Z,24.20
2019-04-04T01:37:39.554Z,24.70
2019-04-04T01:38:39.543Z,23.50
2019-04-04T01:39:39.550Z,23.30
2019-04-04T01:40:39.521Z,24.30
2019-04-04T01:41:39.518Z,23.20
2019-04-04T01:42:39.495Z,23.70
2019-04-04T01:43:40.077Z,27.70
2019-04-04T01:44:40.149Z,27.40
2019-04-04T01:45:39.475Z,24.20
2019-04-04T01:46:39.453Z,24.40
2019-04-04T01:47:39.452Z,26.20
2019-04-04T01:48:39.424Z,25.40
2019-04-04T01:49:39.445Z,27.20
2019-04-04T01:50:39.403Z,22.50
2019-04-04T01:51:39.391Z,24.90
2019-04-04T01:52:39.393Z,27.70
2019-04-04T01:53:39.384Z,24.70
2019-04-04T01:54:39.379Z,22.70
2019-04-04T01:55:39.347Z,24.80
2019-04-04T01:56:39.346Z,26.70
2019-04-04T01:57:39.444Z,27.40
2019-04-04T01:58:41.731Z,26.90
2019-04-04T01:59:39.341Z,24.70
2019-04-04T02:00:39.304Z,23.50
2019-04-04T02:01:39.277Z,25.80
2019-04-04T02:02:39.280Z,25.70
2019-04-04T02:03:39.262Z,23.30
2019-04-04T02:04:39.273Z,26.90
2019-04-04T02:05:39.268Z,25.40
2019-04-04T02:06:39.221Z,23.80
2019-04-04T02:07:39.210Z,25.80
2019-04-04T02:08:39.197Z,21.70
2019-04-04T02:09:39.198Z,23.10
2019-04-04T02:10:39.212Z,27.30
2019-04-04T02:11:39.166Z,25.80
2019-04-04T02:12:39.390Z,28.50
2019-04-04T02:13:40.948Z,26.60
2019-04-04T02:14:39.134Z,25.40
2019-04-04T02:15:39.143Z,24.90
2019-04-04T02:16:39.111Z,23.60
2019-04-04T02:17:39.100Z,25.80
2019-04-04T02:18:39.091Z,23.80
2019-04-04T02:19:39.081Z,27.80
2019-04-04T02:20:39.094Z,27.10
2019-04-04T02:21:39.067Z,26.80
2019-04-04T02:22:39.039Z,28.00
2019-04-04T02:23:39.041Z,23.80
2019-04-04T02:24:39.019Z,24.60
2019-04-04T02:25:39.023Z,26.00
2019-04-04T02:26:39.004Z,29.90
2019-04-04T02:27:38.984Z,31.10
2019-04-04T02:28:40.014Z,23.60
2019-04-04T02:29:39.874Z,21.20
2019-04-04T02:30:38.978Z,26.40
2019-04-04T02:31:38.940Z,25.10
2019-04-04T02:32:39.030Z,28.20
2019-04-04T02:33:38.923Z,32.00
2019-04-04T02:34:38.918Z,25.10
2019-04-04T02:35:42.893Z,25.00
2019-04-04T02:36:38.901Z,24.20
2019-04-04T02:37:38.880Z,24.50
2019-04-04T02:38:38.872Z,28.80
2019-04-04T02:39:38.874Z,27.50
2019-04-04T02:40:41.979Z,26.80
2019-04-04T02:41:38.832Z,30.40
2019-04-04T02:42:38.824Z,25.00
2019-04-04T02:43:38.824Z,23.60
2019-04-04T02:44:38.790Z,27.80
2019-04-04T02:45:39.054Z,25.80
2019-04-04T02:46:38.776Z,26.10
2019-04-04T02:47:38.765Z,22.20
2019-04-04T02:48:38.750Z,25.30
2019-04-04T02:49:38.748Z,25.80
2019-04-04T02:50:38.760Z,25.50
2019-04-04T02:51:41.162Z,24.80
2019-04-04T02:52:38.704Z,24.10
2019-04-04T02:53:38.716Z,27.60
2019-04-04T02:54:38.690Z,26.70
2019-04-04T02:55:38.690Z,24.30
2019-04-04T02:56:38.666Z,24.90
2019-04-04T02:57:41.435Z,27.90
2019-04-04T02:58:38.661Z,24.80
2019-04-04T02:59:38.626Z,26.10
2019-04-04T03:00:38.652Z,25.50
2019-04-04T03:01:38.624Z,24.10
2019-04-04T03:02:38.607Z,25.40
2019-04-04T03:03:41.131Z,26.70
2019-04-04T03:04:38.570Z,29.20
2019-04-04T03:05:38.589Z,24.30
2019-04-04T03:06:38.567Z,29.10
2019-04-04T03:07:38.535Z,23.40
2019-04-04T03:08:38.522Z,27.60
2019-04-04T03:09:42.101Z,28.50
2019-04-04T03:10:38.505Z,23.00
2019-04-04T03:11:38.511Z,26.50
2019-04-04T03:12:38.492Z,27.60
2019-04-04T03:13:38.469Z,26.80
2019-04-04T03:14:38.465Z,26.80
2019-04-04T03:15:41.239Z,27.80
2019-04-04T03:16:38.447Z,26.90
2019-04-04T03:17:38.439Z,30.50
2019-04-04T03:18:38.431Z,26.40
2019-04-04T03:19:43.073Z,27.20
2019-04-04T03:20:39.396Z,27.00
2019-04-04T03:21:38.421Z,26.80
2019-04-04T03:22:38.370Z,28.00
2019-04-04T03:23:38.363Z,30.40
2019-04-04T03:24:40.347Z,27.50
2019-04-04T03:25:38.335Z,28.00
2019-04-04T03:26:38.365Z,25.00
2019-04-04T03:27:38.317Z,27.50
2019-04-04T03:28:38.313Z,29.80
2019-04-04T03:29:38.451Z,25.00
2019-04-04T03:30:38.281Z,22.40
2019-04-04T03:31:39.026Z,25.80
2019-04-04T03:32:38.253Z,28.80
2019-04-04T03:33:38.244Z,27.50
2019-04-04T03:34:38.247Z,27.40
2019-04-04T03:35:38.241Z,26.70
2019-04-04T03:36:38.290Z,25.40
2019-04-04T03:37:40.950Z,22.90
2019-04-04T03:38:38.187Z,23.00
2019-04-04T03:39:38.189Z,24.70
2019-04-04T03:40:41.729Z,25.70
2019-04-04T03:41:38.175Z,31.50
2019-04-04T03:42:38.138Z,25.60
2019-04-04T03:43:38.133Z,28.30
2019-04-04T03:44:38.120Z,25.80
2019-04-04T03:45:38.116Z,28.00
2019-04-04T03:46:39.059Z,28.20
2019-04-04T03:47:38.082Z,26.60
2019-04-04T03:48:38.071Z,27.20
2019-04-04T03:49:38.068Z,28.90
2019-04-04T03:50:38.053Z,27.10
2019-04-04T03:51:38.287Z,24.60
2019-04-04T03:52:38.046Z,27.00
2019-04-04T03:53:38.013Z,24.40
2019-04-04T03:54:38.022Z,27.20
2019-04-04T03:55:37.997Z,26.30
2019-04-04T03:56:39.348Z,27.20
2019-04-04T03:57:37.997Z,27.60
2019-04-04T03:58:37.968Z,25.40
2019-04-04T03:59:37.947Z,25.20
2019-04-04T04:00:40.381Z,28.40
2019-04-04T04:01:37.923Z,27.40
2019-04-04T04:02:37.935Z,27.00
2019-04-04T04:03:37.915Z,27.70
2019-04-04T04:04:37.906Z,26.10
2019-04-04T04:05:40.749Z,26.30
2019-04-04T04:06:41.583Z,24.70
2019-04-04T04:07:37.888Z,25.50
2019-04-04T04:08:37.851Z,26.00
2019-04-04T04:09:37.839Z,25.90
2019-04-04T04:10:37.826Z,28.80
2019-04-04T04:11:38.297Z,28.70
2019-04-04T04:12:37.816Z,25.90
2019-04-04T04:13:37.804Z,26.20
2019-04-04T04:14:37.792Z,24.20
2019-04-04T04:15:37.778Z,25.90
2019-04-04T04:16:37.757Z,25.80
2019-04-04T04:17:37.764Z,26.70
2019-04-04T04:18:37.735Z,27.90
2019-04-04T04:19:37.725Z,23.40
2019-04-04T04:20:39.067Z,25.30
2019-04-04T04:21:37.708Z,28.30
2019-04-04T04:22:37.717Z,26.00
2019-04-04T04:23:37.677Z,26.90
2019-04-04T04:24:37.673Z,25.10
2019-04-04T04:25:37.669Z,29.20
2019-04-04T04:26:40.953Z,26.60
2019-04-04T04:27:37.795Z,30.00
2019-04-04T04:28:37.619Z,26.10
2019-04-04T04:29:37.630Z,29.10
2019-04-04T04:30:40.487Z,26.90
2019-04-04T04:31:37.591Z,28.10
2019-04-04T04:32:37.684Z,28.70
2019-04-04T04:33:37.567Z,31.10
2019-04-04T04:34:37.557Z,25.70
2019-04-04T04:35:40.619Z,25.70
2019-04-04T04:36:37.545Z,26.30
2019-04-04T04:37:37.598Z,26.80
2019-04-04T04:38:37.519Z,27.80
2019-04-04T04:39:41.163Z,27.20
2019-04-04T04:40:37.494Z,29.80
2019-04-04T04:41:37.475Z,27.70
2019-04-04T04:42:37.469Z,29.60
2019-04-04T04:43:37.474Z,29.60
2019-04-04T04:44:38.744Z,26.20
2019-04-04T04:45:37.433Z,26.80
2019-04-04T04:46:37.419Z,28.10
2019-04-04T04:47:37.422Z,30.30
2019-04-04T04:48:37.418Z,27.30
2019-04-04T04:49:37.391Z,28.40
2019-04-04T04:50:40.036Z,30.10
2019-04-04T04:51:37.361Z,24.90
2019-04-04T04:52:37.347Z,31.20
2019-04-04T04:53:37.364Z,29.40
2019-04-04T04:54:37.333Z,28.60
2019-04-04T04:55:37.322Z,32.70
2019-04-04T04:56:37.303Z,31.70
2019-04-04T04:57:38.329Z,32.50
2019-04-04T04:58:37.313Z,26.20
2019-04-04T04:59:37.273Z,27.90
2019-04-04T05:00:37.265Z,31.00
2019-04-04T05:01:37.258Z,27.90
2019-04-04T05:02:37.242Z,29.20
2019-04-04T05:03:37.255Z,26.00
2019-04-04T05:04:37.217Z,24.00
2019-04-04T05:05:37.201Z,28.40
2019-04-04T05:06:37.194Z,24.50
2019-04-04T05:07:38.718Z,26.70
2019-04-04T05:08:37.214Z,25.50
2019-04-04T05:09:37.159Z,30.30
2019-04-04T05:10:37.157Z,28.60
2019-04-04T05:11:37.137Z,32.00
2019-04-04T05:12:37.129Z,25.80
2019-04-04T05:13:37.147Z,29.50
2019-04-04T05:14:37.113Z,31.30
2019-04-04T05:15:37.088Z,26.70
2019-04-04T05:16:37.923Z,25.70
2019-04-04T05:17:37.073Z,29.90
2019-04-04T05:18:37.078Z,28.50
2019-04-04T05:19:37.047Z,29.70
2019-04-04T05:20:37.031Z,26.00
2019-04-04T05:21:37.041Z,27.70
2019-04-04T05:22:39.728Z,26.60
2019-04-04T05:23:37.027Z,26.70
2019-04-04T05:24:37.012Z,29.50
2019-04-04T05:25:49.691Z,31.30
2019-04-04T05:26:38.715Z,30.50
2019-04-04T05:27:37.795Z,25.00
2019-04-04T05:28:36.970Z,28.70
2019-04-04T05:29:36.949Z,26.70
2019-04-04T05:30:36.921Z,27.20
2019-04-04T05:31:36.905Z,28.70
2019-04-04T05:32:36.899Z,28.50
2019-04-04T05:33:36.902Z,25.60
2019-04-04T05:34:36.936Z,25.30
2019-04-04T05:35:37.827Z,29.70
2019-04-04T05:36:37.145Z,27.40
2019-04-04T05:37:38.299Z,28.80
2019-04-04T05:38:36.829Z,25.00
2019-04-04T05:39:36.842Z,26.10
2019-04-04T05:40:36.822Z,26.50
2019-04-04T05:41:37.425Z,25.20
2019-04-04T05:42:36.792Z,31.70
2019-04-04T05:43:37.436Z,25.80
2019-04-04T05:44:36.791Z,30.90
2019-04-04T05:45:36.751Z,27.00
2019-04-04T05:46:36.743Z,29.60
2019-04-04T05:47:36.745Z,29.10
2019-04-04T05:48:36.719Z,25.50
2019-04-04T05:49:38.142Z,25.20
2019-04-04T05:50:36.711Z,25.20
2019-04-04T05:51:36.686Z,26.60
2019-04-04T05:52:36.705Z,26.90
2019-04-04T05:53:36.661Z,26.20
2019-04-04T05:54:37.051Z,27.30
2019-04-04T05:55:36.644Z,29.50
2019-04-04T05:56:36.658Z,27.20
2019-04-04T05:57:36.636Z,24.40
2019-04-04T05:58:36.642Z,27.60
2019-04-04T05:59:36.621Z,25.50
2019-04-04T06:00:36.579Z,25.30
2019-04-04T06:01:36.571Z,24.80
2019-04-04T06:02:36.569Z,26.30
2019-04-04T06:03:36.554Z,24.30
2019-04-04T06:04:36.533Z,24.60
2019-04-04T06:05:36.548Z,27.30
2019-04-04T06:06:36.517Z,27.00
2019-04-04T06:07:37.209Z,25.60
2019-04-04T06:08:38.828Z,28.70
2019-04-04T06:09:36.482Z,27.20
2019-04-04T06:10:36.487Z,25.50
2019-04-04T06:11:36.453Z,27.50
2019-04-04T06:12:37.655Z,23.40
2019-04-04T06:13:36.437Z,25.20
2019-04-04T06:14:36.427Z,25.20
2019-04-04T06:15:36.434Z,26.60
2019-04-04T06:16:36.405Z,27.30
2019-04-04T06:17:38.743Z,29.00
2019-04-04T06:18:36.385Z,24.30
2019-04-04T06:19:36.372Z,28.20
2019-04-04T06:20:36.376Z,27.80
2019-04-04T06:21:36.343Z,25.50
2019-04-04T06:22:36.334Z,27.30
2019-04-04T06:23:36.325Z,26.50
2019-04-04T06:24:36.341Z,27.00
2019-04-04T06:25:36.327Z,25.60
2019-04-04T06:26:38.170Z,22.90
2019-04-04T06:27:39.829Z,24.50
2019-04-04T06:28:36.262Z,23.30
2019-04-04T06:29:36.260Z,27.60
2019-04-04T06:30:43.056Z,27.00
2019-04-04T06:31:37.246Z,24.70
2019-04-04T06:32:38.711Z,25.10
2019-04-04T06:33:36.213Z,27.90
2019-04-04T06:34:36.196Z,30.10
2019-04-04T06:35:36.207Z,25.90
2019-04-04T06:36:36.176Z,22.60
2019-04-04T06:37:38.559Z,23.90
2019-04-04T06:38:36.150Z,26.70
2019-04-04T06:39:36.141Z,25.50
2019-04-04T06:40:36.185Z,24.50
2019-04-04T06:41:36.142Z,23.70
2019-04-04T06:42:37.180Z,26.20
2019-04-04T06:43:36.093Z,27.50
2019-04-04T06:44:36.109Z,24.90
2019-04-04T06:45:36.110Z,25.00
2019-04-04T06:46:36.073Z,24.80
2019-04-04T06:47:36.074Z,24.80
2019-04-04T06:48:36.036Z,24.00
2019-04-04T06:49:36.272Z,28.20
2019-04-04T06:50:38.861Z,25.60
2019-04-04T06:51:36.054Z,28.90
2019-04-04T06:52:36.001Z,27.00
2019-04-04T06:53:35.979Z,25.00
2019-04-04T06:54:35.976Z,25.80
2019-04-04T06:55:39.939Z,22.90
2019-04-04T06:56:35.955Z,23.20
2019-04-04T06:57:36.563Z,28.00
2019-04-04T06:58:35.924Z,23.50
2019-04-04T06:59:36.322Z,24.20
2019-04-04T07:00:35.910Z,22.80
2019-04-04T07:01:35.907Z,26.00
2019-04-04T07:02:35.874Z,25.20
2019-04-04T07:03:35.869Z,26.20
2019-04-04T07:04:36.206Z,24.00
2019-04-04T07:05:37.705Z,23.90
2019-04-04T07:06:35.861Z,22.00
2019-04-04T07:07:35.818Z,25.10
2019-04-04T07:08:35.819Z,26.20
2019-04-04T07:09:37.228Z,26.40
2019-04-04T07:10:35.784Z,22.30
2019-04-04T07:11:35.941Z,22.00
2019-04-04T07:12:37.814Z,22.20
2019-04-04T07:13:42.242Z,22.90
2019-04-04T07:14:45.565Z,24.20
2019-04-04T07:15:46.324Z,23.20
2019-04-04T07:16:37.300Z,23.00
2019-04-04T07:17:35.717Z,25.00
2019-04-04T07:18:35.708Z,23.80
2019-04-04T07:19:35.769Z,21.80
2019-04-04T07:20:35.687Z,21.60
2019-04-04T07:21:35.695Z,22.80
2019-04-04T07:22:35.652Z,26.90
2019-04-04T07:23:35.643Z,23.20
2019-04-04T07:24:35.631Z,21.20
2019-04-04T07:26:36.622Z,22.20
2019-04-04T07:27:35.591Z,23.70
2019-04-04T07:28:36.157Z,23.60
2019-04-04T07:29:36.159Z,18.30
2019-04-04T07:30:35.557Z,24.40
2019-04-04T07:31:38.369Z,19.90
2019-04-04T07:32:35.578Z,23.00
2019-04-04T07:33:35.524Z,21.10
2019-04-04T07:34:36.110Z,19.10
2019-04-04T07:35:35.538Z,20.50
2019-04-04T07:36:35.539Z,23.60
2019-04-04T07:37:35.528Z,21.50
2019-04-04T07:38:35.518Z,20.10
2019-04-04T07:39:35.455Z,20.60
2019-04-04T07:40:37.058Z,23.40
2019-04-04T07:41:35.434Z,20.80
2019-04-04T07:42:35.475Z,23.20
2019-04-04T07:43:35.414Z,21.90
2019-04-04T07:44:35.412Z,21.30
2019-04-04T07:45:35.395Z,18.60
2019-04-04T07:46:35.386Z,21.80
2019-04-04T07:47:35.401Z,20.70
2019-04-04T07:48:35.371Z,18.20
2019-04-04T07:49:35.345Z,18.50
2019-04-04T07:50:35.335Z,17.80
2019-04-04T07:51:35.332Z,18.60
2019-04-04T07:52:35.346Z,22.20
2019-04-04T07:53:36.456Z,23.00
2019-04-04T07:54:38.195Z,20.20
2019-04-04T07:55:35.280Z,24.90
2019-04-04T07:56:35.267Z,22.40
2019-04-04T07:57:35.274Z,20.50
2019-04-04T07:58:35.246Z,17.30
2019-04-04T07:59:35.240Z,17.80
2019-04-04T08:00:35.217Z,19.50
2019-04-04T08:01:35.218Z,18.90
2019-04-04T08:02:35.250Z,22.70
2019-04-04T08:03:35.204Z,19.20
2019-04-04T08:04:35.171Z,18.40
2019-04-04T08:05:35.182Z,18.70
2019-04-04T08:06:35.157Z,19.30
2019-04-04T08:07:35.195Z,21.50
2019-04-04T08:08:35.135Z,16.40
2019-04-04T08:09:35.125Z,19.50
2019-04-04T08:10:35.122Z,16.60
2019-04-04T08:11:35.092Z,17.40
2019-04-04T08:12:35.130Z,18.80
2019-04-04T08:13:35.114Z,17.50
2019-04-04T08:14:35.067Z,18.70
2019-04-04T08:15:36.001Z,17.80
2019-04-04T08:16:35.046Z,15.90
2019-04-04T08:17:35.069Z,18.20
2019-04-04T08:18:35.017Z,18.70
2019-04-04T08:19:35.006Z,18.60
2019-04-04T08:20:34.997Z,18.00
2019-04-04T08:21:34.983Z,20.20
2019-04-04T08:22:34.992Z,21.40
2019-04-04T08:23:34.982Z,16.60
2019-04-04T08:24:34.962Z,15.80
2019-04-04T08:25:34.942Z,16.10
2019-04-04T08:26:34.942Z,18.30
2019-04-04T08:27:34.927Z,16.40
2019-04-04T08:28:34.903Z,19.30
2019-04-04T08:29:34.896Z,17.10
2019-04-04T08:30:34.883Z,17.50
2019-04-04T08:31:34.876Z,18.80
2019-04-04T08:32:34.882Z,19.90
2019-04-04T08:33:34.843Z,22.60
2019-04-04T08:34:36.406Z,24.90
2019-04-04T08:35:34.827Z,24.20
2019-04-04T08:36:35.944Z,25.10
2019-04-04T08:37:34.823Z,19.40
2019-04-04T08:38:34.799Z,18.30
2019-04-04T08:39:34.791Z,20.10
2019-04-04T08:40:34.771Z,15.00
2019-04-04T08:41:34.759Z,14.70
2019-04-04T08:42:34.781Z,15.70
2019-04-04T08:43:34.730Z,18.50
2019-04-04T08:44:34.730Z,14.80
2019-04-04T08:45:34.711Z,16.70
2019-04-04T08:46:34.701Z,15.60
2019-04-04T08:47:34.712Z,15.60
2019-04-04T08:48:34.694Z,18.30
2019-04-04T08:49:34.661Z,17.70
2019-04-04T08:50:34.658Z,18.70
2019-04-04T08:51:34.642Z,15.40
2019-04-04T08:52:34.631Z,15.50
2019-04-04T08:53:40.323Z,16.70
2019-04-04T08:54:35.622Z,17.10
2019-04-04T08:55:34.617Z,19.50
2019-04-04T08:56:34.620Z,15.00
2019-04-04T08:57:34.574Z,15.00
2019-04-04T08:58:34.647Z,17.30
2019-04-04T08:59:34.555Z,16.60
2019-04-04T09:00:34.552Z,15.30
2019-04-04T09:01:34.530Z,14.70
2019-04-04T09:02:34.510Z,19.50
2019-04-04T09:03:34.530Z,14.80
2019-04-04T09:04:34.493Z,14.60
2019-04-04T09:05:34.492Z,22.10
2019-04-04T09:06:34.485Z,13.80
2019-04-04T09:07:34.470Z,17.50
2019-04-04T09:08:34.481Z,19.50
2019-04-04T09:09:34.772Z,15.10
2019-04-04T09:10:34.424Z,14.80
2019-04-04T09:11:34.424Z,15.90
2019-04-04T09:12:34.418Z,17.50
2019-04-04T09:13:34.428Z,14.70
2019-04-04T09:14:34.382Z,14.60
2019-04-04T09:15:34.379Z,16.70
2019-04-04T09:16:34.357Z,15.40
2019-04-04T09:17:34.351Z,14.40
2019-04-04T09:18:34.373Z,16.20
2019-04-04T09:19:34.327Z,13.70
2019-04-04T09:20:34.321Z,20.60
2019-04-04T09:21:34.323Z,17.30
2019-04-04T09:22:34.300Z,13.30
2019-04-04T09:23:34.302Z,18.40
2019-04-04T09:24:34.279Z,18.80
2019-04-04T09:25:34.255Z,19.60
2019-04-04T09:26:34.249Z,16.00
2019-04-04T09:27:34.232Z,17.30
2019-04-04T09:28:34.240Z,17.10
2019-04-04T09:29:34.210Z,15.20
2019-04-04T09:30:34.204Z,14.20
2019-04-04T09:31:34.187Z,14.10
2019-04-04T09:32:34.182Z,12.60
2019-04-04T09:33:34.189Z,15.60
2019-04-04T09:34:34.159Z,12.50
2019-04-04T09:35:34.156Z,16.10
2019-04-04T09:36:34.133Z,14.90
2019-04-04T09:37:34.119Z,11.80
2019-04-04T09:38:34.133Z,17.40
2019-04-04T09:39:34.105Z,12.90
2019-04-04T09:40:34.098Z,17.20
2019-04-04T09:41:34.090Z,16.60
2019-04-04T09:42:34.060Z,12.90
2019-04-04T09:43:34.062Z,15.20
2019-04-04T09:44:34.046Z,14.60
2019-04-04T09:45:34.026Z,14.50
2019-04-04T09:46:34.017Z,16.00
2019-04-04T09:47:34.001Z,23.00
2019-04-04T09:48:34.040Z,16.20
2019-04-04T09:49:34.043Z,17.60
2019-04-04T09:50:33.977Z,16.10
2019-04-04T09:51:33.979Z,17.10
2019-04-04T09:52:33.965Z,20.80
2019-04-04T09:53:33.980Z,13.10
2019-04-04T09:54:33.926Z,19.10
2019-04-04T09:55:33.920Z,13.10
2019-04-04T09:56:33.908Z,13.80
2019-04-04T09:57:33.899Z,15.30
2019-04-04T09:58:33.907Z,13.90
2019-04-04T09:59:33.865Z,13.80
2019-04-04T10:00:33.855Z,15.50
2019-04-04T10:01:33.848Z,15.90
2019-04-04T10:02:33.848Z,16.30
2019-04-04T10:03:33.849Z,12.60
2019-04-04T10:04:33.809Z,12.10
2019-04-04T10:05:33.799Z,15.60
2019-04-04T10:06:33.797Z,11.50
2019-04-04T10:07:33.780Z,12.90
2019-04-04T10:08:33.791Z,16.30
2019-04-04T10:09:33.773Z,11.60
2019-04-04T10:10:33.742Z,11.60
2019-04-04T10:11:33.739Z,14.80
2019-04-04T10:12:33.731Z,15.00
2019-04-04T10:13:33.725Z,11.70
2019-04-04T10:14:33.704Z,12.50
2019-04-04T10:15:33.687Z,13.80
2019-04-04T10:16:33.675Z,11.80
2019-04-04T10:17:33.662Z,13.30
2019-04-04T10:18:33.671Z,13.20
2019-04-04T10:19:33.662Z,12.30
2019-04-04T10:20:33.647Z,12.00
2019-04-04T10:21:33.648Z,12.10
2019-04-04T10:22:33.622Z,13.20
2019-04-04T10:23:33.615Z,13.00
2019-04-04T10:24:33.589Z,15.10
2019-04-04T10:25:33.588Z,13.20
2019-04-04T10:26:33.590Z,13.10
2019-04-04T10:27:33.554Z,13.00
2019-04-04T10:28:33.558Z,11.40
2019-04-04T10:29:33.537Z,13.00
2019-04-04T10:30:33.522Z,13.80
2019-04-04T10:31:33.520Z,15.00
2019-04-04T10:32:33.518Z,12.60
2019-04-04T10:33:33.506Z,11.70
2019-04-04T10:34:33.479Z,11.90
2019-04-04T10:35:33.476Z,12.80
2019-04-04T10:36:33.478Z,8.90
2019-04-04T10:37:33.459Z,12.40
2019-04-04T10:38:33.465Z,12.30
2019-04-04T10:39:33.443Z,11.30
2019-04-04T10:40:33.415Z,11.50
2019-04-04T10:41:33.413Z,10.70
2019-04-04T10:42:34.232Z,9.60
2019-04-04T10:43:33.398Z,10.20
2019-04-04T10:44:33.374Z,10.00
2019-04-04T10:45:33.356Z,9.20
2019-04-04T10:46:33.346Z,10.90
2019-04-04T10:47:33.386Z,11.00
2019-04-04T10:48:33.360Z,12.40
2019-04-04T10:49:33.326Z,10.10
2019-04-04T10:50:33.306Z,11.60
2019-04-04T10:51:33.298Z,11.30
2019-04-04T10:52:33.284Z,11.00
2019-04-04T10:53:33.305Z,11.20
2019-04-04T10:54:33.266Z,12.20
2019-04-04T10:55:33.277Z,11.90
2019-04-04T10:56:33.243Z,9.60
2019-04-04T10:57:33.233Z,10.70
2019-04-04T10:58:33.254Z,11.70
2019-04-04T10:59:33.212Z,11.30
2019-04-04T11:00:33.211Z,9.80
2019-04-04T11:01:33.208Z,8.60
2019-04-04T11:02:33.189Z,8.40
2019-04-04T11:03:33.185Z,10.80
2019-04-04T11:04:33.747Z,11.20
2019-04-04T11:05:35.345Z,12.30
2019-04-04T11:06:33.147Z,9.20
2019-04-04T11:07:33.137Z,9.10
2019-04-04T11:08:33.144Z,10.20
2019-04-04T11:09:41.960Z,11.10
2019-04-04T11:10:34.107Z,9.80
2019-04-04T11:11:33.104Z,10.70
2019-04-04T11:12:34.408Z,10.50
2019-04-04T11:13:34.025Z,9.90
2019-04-04T11:14:33.068Z,8.00
2019-04-04T11:15:33.053Z,11.90
2019-04-04T11:16:33.048Z,10.10
2019-04-04T11:17:33.044Z,9.10
2019-04-04T11:18:33.042Z,11.50
2019-04-04T11:19:33.028Z,12.20
2019-04-04T11:20:33.004Z,10.20
2019-04-04T11:21:32.994Z,10.70
2019-04-04T11:22:32.981Z,9.10
2019-04-04T11:23:32.993Z,9.40
2019-04-04T11:24:32.970Z,9.20
2019-04-04T11:25:32.960Z,9.60
2019-04-04T11:26:32.953Z,11.80
2019-04-04T11:27:32.933Z,9.50
2019-04-04T11:28:32.957Z,9.40
2019-04-04T11:29:32.918Z,9.30
2019-04-04T11:30:32.906Z,10.70
2019-04-04T11:31:32.906Z,13.00
2019-04-04T11:32:32.905Z,9.30
2019-04-04T11:33:32.910Z,9.20
2019-04-04T11:34:32.874Z,9.50
2019-04-04T11:35:32.861Z,7.70
2019-04-04T11:36:32.854Z,9.40
2019-04-04T11:37:32.847Z,8.00
2019-04-04T11:38:32.997Z,6.90
2019-04-04T11:39:32.822Z,10.60
2019-04-04T11:40:32.814Z,8.60
2019-04-04T11:41:32.811Z,11.90
2019-04-04T11:42:32.802Z,10.40
2019-04-04T11:43:32.810Z,12.20
2019-04-04T11:44:32.786Z,11.00
2019-04-04T11:45:32.789Z,12.10
2019-04-04T11:46:32.765Z,10.20
2019-04-04T11:47:32.750Z,10.50
2019-04-04T11:48:32.777Z,7.50
2019-04-04T11:49:32.750Z,9.00
2019-04-04T11:50:32.753Z,6.60
2019-04-04T11:51:32.722Z,7.60
2019-04-04T11:52:32.712Z,11.00
2019-04-04T11:53:32.720Z,9.30
2019-04-04T11:54:32.693Z,8.80
2019-04-04T11:55:32.685Z,8.40
2019-04-04T11:56:32.672Z,7.50
2019-04-04T11:57:32.711Z,6.80
2019-04-04T11:58:32.671Z,9.50
2019-04-04T11:59:32.642Z,7.20
2019-04-04T12:00:32.638Z,7.00
2019-04-04T12:01:32.630Z,8.50
2019-04-04T12:02:32.980Z,7.20
2019-04-04T12:03:32.641Z,9.50
2019-04-04T12:04:32.612Z,9.40
2019-04-04T12:05:32.619Z,12.70
2019-04-04T12:06:32.582Z,10.60
2019-04-04T12:07:32.593Z,12.90
2019-04-04T12:08:32.581Z,10.00
2019-04-04T12:09:32.564Z,10.90
2019-04-04T12:10:32.554Z,8.50
2019-04-04T12:11:32.554Z,13.90
2019-04-04T12:12:32.529Z,10.50
2019-04-04T12:13:32.574Z,7.30
2019-04-04T12:14:32.509Z,10.50
2019-04-04T12:15:32.498Z,13.90
2019-04-04T12:16:32.932Z,10.60
2019-04-04T12:17:32.526Z,10.10
2019-04-04T12:18:32.506Z,9.40
2019-04-04T12:19:32.465Z,8.80
2019-04-04T12:20:32.455Z,9.60
2019-04-04T12:21:32.457Z,12.90
2019-04-04T12:22:32.435Z,11.50
2019-04-04T12:23:32.448Z,6.90
2019-04-04T12:24:32.419Z,10.40
2019-04-04T12:25:32.404Z,10.20
2019-04-04T12:26:32.394Z,10.20
2019-04-04T12:27:32.386Z,9.70
2019-04-04T12:28:32.404Z,7.60
2019-04-04T12:29:32.376Z,12.50
2019-04-04T12:30:32.356Z,7.90
2019-04-04T12:31:32.344Z,6.30
2019-04-04T12:32:32.332Z,8.90
2019-04-04T12:33:32.437Z,7.10
2019-04-04T12:34:32.323Z,11.00
2019-04-04T12:35:32.307Z,8.70
2019-04-04T12:36:32.297Z,9.00
2019-04-04T12:37:32.284Z,7.20
2019-04-04T12:38:32.272Z,9.70
2019-04-04T12:39:32.284Z,10.10
2019-04-04T12:40:32.253Z,8.80
2019-04-04T12:41:32.250Z,8.00
2019-04-04T12:42:32.232Z,11.80
2019-04-04T12:43:32.225Z,12.80
2019-04-04T12:44:32.233Z,8.20
2019-04-04T12:45:32.208Z,11.20
2019-04-04T12:46:32.196Z,10.40
2019-04-04T12:47:32.193Z,10.20
2019-04-04T12:48:32.197Z,8.80
2019-04-04T12:49:32.203Z,9.50
2019-04-04T12:50:32.184Z,8.70
2019-04-04T12:51:32.153Z,7.90
2019-04-04T12:52:32.141Z,10.10
2019-04-04T12:53:32.856Z,7.00
2019-04-04T12:54:32.158Z,9.70
2019-04-04T12:55:32.113Z,6.50